Time;durP1;ratioP1;P1;durP2;ratioP2;P2;SDS_P1;SDS_P2;PMS_P1;PMS_P2;Temp;Humidity;BMP_temperature;BMP_pressure;BME280_temperature;BME280_humidity;BME280_pressure;Samples;Min_cycle;Max_cycle;Signal;HPM_P1;HPM_P2
2021/09/02 00:01:14;;;;;;;11.93;7.45;;;17.70;99.20;;;;;;5029457;28;20128;-71
2021/09/02 00:03:39;;;;;;;12.30;7.78;;;17.70;99.20;;;;;;5028891;28;20051;-71
2021/09/02 00:06:05;;;;;;;10.88;7.60;;;17.80;99.20;;;;;;5033079;28;20029;-71
2021/09/02 00:08:30;;;;;;;12.57;8.32;;;17.80;99.20;;;;;;5032740;28;20026;-71
2021/09/02 00:10:56;;;;;;;8.88;7.05;;;17.80;99.20;;;;;;5033420;28;20041;-71
2021/09/02 00:13:21;;;;;;;9.30;7.13;;;17.80;99.20;;;;;;5048189;28;20043;-71
2021/09/02 00:15:47;;;;;;;11.80;8.00;;;17.80;99.20;;;;;;5033516;28;20029;-71
2021/09/02 00:18:12;;;;;;;10.57;7.18;;;17.80;99.10;;;;;;5048578;28;20045;-71
2021/09/02 00:20:38;;;;;;;11.20;7.03;;;17.90;99.20;;;;;;5036187;28;20048;-71
2021/09/02 00:23:03;;;;;;;11.05;6.15;;;17.90;99.20;;;;;;5033240;28;20079;-71
2021/09/02 00:25:29;;;;;;;10.38;6.75;;;17.90;99.20;;;;;;5032684;28;20030;-71
2021/09/02 00:27:54;;;;;;;9.30;6.47;;;17.90;99.20;;;;;;5045461;28;20033;-70
2021/09/02 00:30:20;;;;;;;9.52;6.13;;;17.90;99.20;;;;;;5037352;28;20136;-70
2021/09/02 00:32:45;;;;;;;9.57;6.50;;;17.90;99.20;;;;;;5032848;28;20148;-70
2021/09/02 00:35:11;;;;;;;9.18;6.38;;;17.90;99.20;;;;;;5048432;28;20111;-70
2021/09/02 00:37:37;;;;;;;9.68;6.78;;;17.90;99.10;;;;;;5043187;28;20035;-70
2021/09/02 00:40:03;;;;;;;9.88;7.00;;;17.90;99.10;;;;;;5038135;28;20132;-70
2021/09/02 00:42:29;;;;;;;8.43;6.25;;;17.90;99.10;;;;;;5039865;28;20060;-70
2021/09/02 00:44:54;;;;;;;7.65;6.22;;;17.90;99.10;;;;;;5040575;28;20333;-70
2021/09/02 00:47:21;;;;;;;7.10;5.72;;;17.90;99.10;;;;;;5032478;28;20013;-70
2021/09/02 00:49:47;;;;;;;8.25;6.38;;;17.90;99.20;;;;;;5028227;28;20030;-70
2021/09/02 00:52:16;;;;;;;9.38;6.57;;;18.00;99.20;;;;;;5051219;28;20028;-70
2021/09/02 00:54:50;;;;;;;8.13;5.68;;;18.00;99.20;;;;;;5045449;28;20053;-70
2021/09/02 00:57:17;;;;;;;;;;;18.00;99.20;;;;;;5033425;28;20025;-70
2021/09/02 00:59:42;;;;;;;10.43;5.70;;;18.00;99.00;;;;;;5030614;28;20373;-70
2021/09/02 01:02:08;;;;;;;10.45;5.95;;;17.90;99.00;;;;;;5037950;28;20040;-70
2021/09/02 01:04:34;;;;;;;9.95;5.70;;;17.90;99.10;;;;;;5043344;28;20543;-69
2021/09/02 01:07:00;;;;;;;10.65;6.72;;;17.90;99.10;;;;;;5032370;28;20044;-70
2021/09/02 01:09:29;;;;;;;9.15;6.43;;;17.90;99.00;;;;;;5032566;28;20025;-70
2021/09/02 01:11:55;;;;;;;9.23;5.95;;;17.90;99.00;;;;;;5032341;28;20696;-69
2021/09/02 01:14:21;;;;;;;8.75;6.20;;;17.90;99.00;;;;;;5032723;28;20036;-69
2021/09/02 01:16:50;;;;;;;9.48;5.82;;;17.90;99.00;;;;;;5029930;28;20025;-69
2021/09/02 01:19:20;;;;;;;10.18;6.80;;;17.90;99.00;;;;;;5033071;28;20061;-70
2021/09/02 01:21:46;;;;;;;8.45;6.10;;;17.90;99.00;;;;;;5045349;28;20090;-69
2021/09/02 01:24:12;;;;;;;11.25;6.47;;;17.90;99.00;;;;;;5046367;28;20037;-70
2021/09/02 01:26:38;;;;;;;11.02;6.70;;;17.80;98.90;;;;;;5031972;28;20032;-69
2021/09/02 01:29:04;;;;;;;10.10;5.85;;;17.80;98.90;;;;;;5032045;28;20021;-69
2021/09/02 01:31:30;;;;;;;8.70;6.13;;;17.80;98.90;;;;;;5033170;28;20112;-69
2021/09/02 01:33:56;;;;;;;9.77;6.85;;;17.80;98.90;;;;;;5048742;28;20034;-70
2021/09/02 01:36:21;;;;;;;8.77;5.88;;;17.80;98.90;;;;;;5031328;28;20033;-69
2021/09/02 01:38:47;;;;;;;8.52;5.90;;;17.80;98.90;;;;;;5044459;28;20033;-69
2021/09/02 01:41:12;;;;;;;7.63;5.50;;;17.80;98.90;;;;;;5031565;28;20084;-69
2021/09/02 01:43:38;;;;;;;8.70;6.45;;;17.80;98.90;;;;;;5032723;28;20021;-68
2021/09/02 01:46:04;;;;;;;10.75;5.78;;;17.80;98.90;;;;;;5030195;28;20032;-69
2021/09/02 01:48:34;;;;;;;8.77;5.85;;;17.70;98.90;;;;;;5032430;28;20026;-69
2021/09/02 01:50:59;;;;;;;9.10;5.85;;;17.80;98.90;;;;;;5039387;28;20255;-69
2021/09/02 01:53:25;;;;;;;9.68;5.60;;;17.70;98.90;;;;;;5037835;28;20402;-69
2021/09/02 01:55:52;;;;;;;9.07;5.82;;;17.70;98.90;;;;;;5030542;28;20025;-69
2021/09/02 01:58:17;;;;;;;11.50;5.80;;;17.70;98.80;;;;;;5031597;28;20029;-69
2021/09/02 02:00:44;;;;;;;9.25;5.78;;;17.70;98.80;;;;;;5030460;28;20155;-69
2021/09/02 02:03:09;;;;;;;10.70;6.20;;;17.70;98.80;;;;;;5032154;28;20021;-69
2021/09/02 02:05:35;;;;;;;8.60;5.95;;;17.70;98.80;;;;;;5040899;28;20040;-68
2021/09/02 02:08:02;;;;;;;9.05;5.95;;;17.70;98.80;;;;;;5041282;28;20449;-69
2021/09/02 02:10:28;;;;;;;9.98;6.10;;;17.70;98.80;;;;;;5036674;28;20033;-69
2021/09/02 02:13:01;;;;;;;8.20;6.28;;;17.70;98.80;;;;;;5044673;28;20617;-69
2021/09/02 02:15:27;;;;;;;7.60;5.90;;;17.70;98.80;;;;;;5030707;28;20037;-69
2021/09/02 02:17:54;;;;;;;8.70;6.00;;;17.70;98.80;;;;;;5045026;28;20024;-69
2021/09/02 02:20:19;;;;;;;10.02;6.85;;;17.60;98.70;;;;;;5030051;28;20117;-69
2021/09/02 02:22:46;;;;;;;9.65;6.47;;;17.60;98.80;;;;;;5031384;28;20461;-69
2021/09/02 02:25:14;;;;;;;8.65;6.25;;;17.60;98.80;;;;;;5033696;28;20017;-69
2021/09/02 02:27:40;;;;;;;9.82;6.75;;;17.60;98.80;;;;;;5031416;28;20021;-69
2021/09/02 02:30:10;;;;;;;9.50;6.25;;;17.60;98.80;;;;;;5041897;28;20104;-69
2021/09/02 02:32:36;;;;;;;8.77;6.28;;;17.60;98.70;;;;;;5031486;28;20033;-69
2021/09/02 02:35:02;;;;;;;9.75;6.55;;;17.60;98.70;;;;;;5029861;28;20026;-69
2021/09/02 02:37:28;;;;;;;8.98;5.82;;;17.50;98.70;;;;;;5031871;28;20780;-69
2021/09/02 02:39:53;;;;;;;9.52;6.43;;;17.50;98.70;;;;;;5029618;28;20064;-69
2021/09/02 02:42:19;;;;;;;9.35;6.25;;;17.50;98.70;;;;;;5051587;28;20021;-69
2021/09/02 02:44:44;;;;;;;9.65;6.22;;;17.40;98.70;;;;;;5045388;28;20420;-69
2021/09/02 02:47:10;;;;;;;9.88;5.22;;;17.40;98.70;;;;;;5031248;28;20127;-69
2021/09/02 02:49:37;;;;;;;11.73;6.25;;;17.40;98.80;;;;;;5030221;28;20057;-69
2021/09/02 02:52:03;;;;;;;10.18;6.75;;;17.40;98.80;;;;;;5017313;28;20490;-71
2021/09/02 02:54:29;;;;;;;10.13;6.88;;;17.40;98.70;;;;;;5013829;28;20075;-70
2021/09/02 02:56:55;;;;;;;10.13;6.80;;;17.40;98.60;;;;;;5029429;28;20434;-70
2021/09/02 02:59:20;;;;;;;10.05;6.32;;;17.40;98.60;;;;;;5030740;28;20065;-70
2021/09/02 03:01:46;;;;;;;11.80;7.55;;;17.30;98.70;;;;;;5028964;28;20037;-70
2021/09/02 03:04:11;;;;;;;9.70;6.65;;;17.30;98.70;;;;;;5030780;28;20030;-70
2021/09/02 03:06:37;;;;;;;8.40;6.18;;;17.30;98.80;;;;;;5039143;28;20036;-69
2021/09/02 03:09:03;;;;;;;8.70;6.60;;;17.20;98.80;;;;;;5031317;28;20488;-69
2021/09/02 03:11:30;;;;;;;9.68;6.35;;;17.20;98.80;;;;;;5038794;28;20025;-69
2021/09/02 03:13:55;;;;;;;10.68;6.72;;;17.20;98.90;;;;;;5049337;28;20037;-69
2021/09/02 03:16:21;;;;;;;12.25;6.72;;;17.20;99.00;;;;;;5043975;28;20055;-69
2021/09/02 03:18:46;;;;;;;8.80;6.97;;;17.10;99.00;;;;;;5048397;28;20033;-69
2021/09/02 03:21:12;;;;;;;8.63;5.70;;;17.10;99.00;;;;;;5041744;28;20041;-69
2021/09/02 03:23:38;;;;;;;8.63;6.38;;;17.10;99.20;;;;;;5049691;28;20032;-70
2021/09/02 03:26:03;;;;;;;10.00;6.93;;;17.10;99.20;;;;;;5034265;28;20030;-69
2021/09/02 03:28:29;;;;;;;8.48;6.32;;;17.20;99.20;;;;;;5030196;28;20028;-69
2021/09/02 03:30:54;;;;;;;10.60;8.20;;;17.20;99.20;;;;;;5039629;28;20035;-74
2021/09/02 03:33:20;;;;;;;9.45;6.43;;;17.20;99.30;;;;;;5036258;28;20041;-75
2021/09/02 03:35:45;;;;;;;9.93;6.75;;;17.20;99.20;;;;;;5037408;28;20382;-75
2021/09/02 03:38:11;;;;;;;12.48;6.80;;;17.10;99.20;;;;;;5036884;28;20025;-74
2021/09/02 03:40:37;;;;;;;10.65;6.22;;;17.10;99.20;;;;;;5040924;28;20037;-75
2021/09/02 03:43:02;;;;;;;10.13;6.47;;;17.10;99.20;;;;;;5042503;28;20052;-75
2021/09/02 03:45:30;;;;;;;8.35;6.10;;;17.10;99.20;;;;;;5032719;28;20057;-74
2021/09/02 03:47:56;;;;;;;10.88;6.60;;;17.10;99.30;;;;;;5033823;28;20367;-75
2021/09/02 03:50:21;;;;;;;9.77;7.10;;;17.10;99.30;;;;;;5038853;28;20043;-74
2021/09/02 03:52:47;;;;;;;8.65;6.38;;;17.10;99.30;;;;;;5041388;28;20088;-75
2021/09/02 03:55:13;;;;;;;9.68;6.60;;;17.10;99.40;;;;;;5033887;28;20053;-75
2021/09/02 03:57:40;;;;;;;10.25;6.28;;;17.00;99.40;;;;;;5032875;28;20027;-76
2021/09/02 04:00:09;;;;;;;10.52;6.20;;;17.00;99.40;;;;;;5031977;28;20048;-75
2021/09/02 04:02:35;;;;;;;10.15;6.65;;;17.00;99.50;;;;;;5033828;28;20065;-76
2021/09/02 04:05:02;;;;;;;10.52;7.32;;;17.00;99.50;;;;;;5034951;28;20033;-75
2021/09/02 04:07:27;;;;;;;10.63;6.38;;;17.00;99.50;;;;;;5042415;28;20458;-76
2021/09/02 04:09:53;;;;;;;10.88;6.95;;;17.00;99.50;;;;;;5030687;28;20026;-75
2021/09/02 04:12:18;;;;;;;9.93;6.70;;;17.00;99.60;;;;;;5034170;28;20021;-76
2021/09/02 04:14:44;;;;;;;9.60;6.53;;;17.00;99.60;;;;;;5032352;28;20047;-76
2021/09/02 04:17:09;;;;;;;10.45;6.18;;;17.00;99.60;;;;;;5054199;28;20021;-76
2021/09/02 04:19:35;;;;;;;9.27;5.97;;;17.00;99.60;;;;;;5050722;28;20029;-76
2021/09/02 04:22:01;;;;;;;10.45;6.70;;;17.00;99.70;;;;;;5044858;28;20029;-75
2021/09/02 04:24:26;;;;;;;10.25;6.90;;;17.00;99.60;;;;;;5053230;28;20028;-76
2021/09/02 04:26:53;;;;;;;12.13;6.70;;;17.00;99.60;;;;;;5050155;28;20049;-75
2021/09/02 04:29:18;;;;;;;10.68;6.97;;;17.00;99.70;;;;;;5025890;28;20026;-75
2021/09/02 04:31:44;;;;;;;11.90;7.47;;;17.00;99.70;;;;;;5044507;28;20040;-75
2021/09/02 04:34:10;;;;;;;11.30;6.78;;;17.00;99.70;;;;;;5033185;28;20201;-75
2021/09/02 04:36:35;;;;;;;9.73;6.00;;;16.90;99.80;;;;;;5048074;28;20119;-75
2021/09/02 04:39:01;;;;;;;10.00;6.15;;;16.90;99.80;;;;;;5033806;28;20115;-76
2021/09/02 04:41:27;;;;;;;11.43;6.38;;;16.90;99.80;;;;;;5035733;28;20037;-75
2021/09/02 04:43:52;;;;;;;9.65;6.50;;;16.90;99.90;;;;;;5033351;28;20082;-76
2021/09/02 04:46:19;;;;;;;11.45;6.20;;;16.90;99.90;;;;;;5036157;28;20513;-76
2021/09/02 04:48:44;;;;;;;10.50;7.38;;;16.90;99.90;;;;;;5033153;28;20037;-76
2021/09/02 04:51:10;;;;;;;11.50;7.25;;;16.90;99.90;;;;;;5027340;28;20540;-76
2021/09/02 04:53:35;;;;;;;7.88;6.05;;;16.90;99.90;;;;;;5031983;28;20087;-76
2021/09/02 04:56:00;;;;;;;12.73;7.57;;;16.90;99.90;;;;;;5032661;28;20159;-76
2021/09/02 04:58:26;;;;;;;11.85;6.95;;;16.90;99.90;;;;;;5033015;28;20095;-76
2021/09/02 05:00:52;;;;;;;12.40;7.32;;;16.90;99.90;;;;;;5041058;28;20037;-76
2021/09/02 05:03:17;;;;;;;11.98;6.97;;;16.90;99.90;;;;;;5041881;28;20025;-76
2021/09/02 05:05:43;;;;;;;11.18;6.93;;;16.80;99.90;;;;;;5032698;28;20397;-75
2021/09/02 05:08:08;;;;;;;10.55;7.07;;;16.80;99.90;;;;;;5032966;28;20030;-75
2021/09/02 05:10:34;;;;;;;9.35;6.75;;;16.80;99.90;;;;;;5038267;28;20029;-76
2021/09/02 05:12:59;;;;;;;12.85;7.28;;;16.80;99.90;;;;;;5036508;28;20026;-76
2021/09/02 05:15:25;;;;;;;9.98;6.47;;;16.80;99.90;;;;;;5019689;28;20033;-76
2021/09/02 05:17:50;;;;;;;11.93;7.07;;;16.80;99.90;;;;;;5032620;28;20027;-75
2021/09/02 05:20:16;;;;;;;12.68;7.50;;;16.90;99.90;;;;;;5036568;28;20037;-75
2021/09/02 05:22:44;;;;;;;11.15;7.68;;;16.80;99.90;;;;;;5043854;28;20021;-75
2021/09/02 05:25:10;;;;;;;12.23;7.07;;;16.80;99.90;;;;;;5032049;28;20033;-75
2021/09/02 05:27:36;;;;;;;11.05;7.35;;;16.80;99.90;;;;;;5032188;28;20090;-75
2021/09/02 05:30:05;;;;;;;11.10;6.60;;;16.80;99.90;;;;;;5033172;28;20033;-75
2021/09/02 05:32:30;;;;;;;13.55;7.13;;;16.80;99.90;;;;;;5027089;28;20494;-75
2021/09/02 05:34:56;;;;;;;12.18;6.72;;;16.80;99.90;;;;;;5015353;28;20029;-75
2021/09/02 05:37:22;;;;;;;11.60;6.88;;;16.80;99.90;;;;;;5031147;28;20098;-75
2021/09/02 05:39:47;;;;;;;11.98;7.32;;;16.90;99.90;;;;;;5031761;28;20033;-74
2021/09/02 05:42:13;;;;;;;11.88;7.90;;;16.80;99.90;;;;;;5032364;28;20036;-74
2021/09/02 05:44:38;;;;;;;12.50;7.80;;;16.90;99.90;;;;;;5032091;28;20024;-75
2021/09/02 05:47:04;;;;;;;13.63;7.95;;;16.90;99.90;;;;;;5031413;28;20112;-74
2021/09/02 05:49:30;;;;;;;11.48;7.20;;;16.90;99.90;;;;;;5032159;28;20033;-74
2021/09/02 05:51:55;;;;;;;11.45;7.05;;;16.90;99.90;;;;;;5035058;28;20385;-74
2021/09/02 05:54:21;;;;;;;11.63;7.57;;;17.00;99.90;;;;;;5049410;28;20125;-74
2021/09/02 05:56:46;;;;;;;10.85;7.32;;;17.00;99.90;;;;;;5036834;28;20044;-75
2021/09/02 05:59:12;;;;;;;10.93;6.90;;;17.00;99.90;;;;;;5031780;28;20037;-74
2021/09/02 06:01:37;;;;;;;13.02;7.55;;;17.00;99.90;;;;;;5026572;28;20083;-74
2021/09/02 06:04:03;;;;;;;13.07;6.65;;;17.00;99.90;;;;;;5031392;28;20040;-74
2021/09/02 06:06:28;;;;;;;15.18;7.70;;;17.00;99.90;;;;;;5042317;28;20029;-74
2021/09/02 06:08:54;;;;;;;12.93;7.63;;;17.10;99.90;;;;;;5031660;28;20060;-74
2021/09/02 06:11:19;;;;;;;14.75;8.02;;;17.10;99.90;;;;;;5030766;28;20025;-74
2021/09/02 06:13:45;;;;;;;13.18;7.22;;;17.10;99.90;;;;;;5032919;28;20025;-75
2021/09/02 06:16:10;;;;;;;10.32;6.97;;;17.10;99.90;;;;;;5032247;28;20549;-75
2021/09/02 06:18:36;;;;;;;13.25;8.27;;;17.20;99.90;;;;;;5030663;28;20473;-74
2021/09/02 06:21:01;;;;;;;11.30;8.02;;;17.30;99.90;;;;;;5039894;28;20045;-74
2021/09/02 06:23:27;;;;;;;16.02;8.82;;;17.30;99.90;;;;;;5032744;28;20049;-75
2021/09/02 06:25:52;;;;;;;12.65;7.35;;;17.30;99.90;;;;;;5030859;28;20029;-75
2021/09/02 06:28:18;;;;;;;14.38;7.88;;;17.30;99.90;;;;;;5031655;28;20066;-70
2021/09/02 06:30:43;;;;;;;12.05;7.25;;;17.40;99.90;;;;;;5033318;28;20469;-70
2021/09/02 06:33:09;;;;;;;15.65;7.38;;;17.40;99.90;;;;;;5026055;28;20040;-79
2021/09/02 06:35:34;;;;;;;13.38;7.07;;;17.50;99.90;;;;;;5037013;28;20036;-76
2021/09/02 06:38:00;;;;;;;15.25;8.40;;;17.50;99.90;;;;;;5027642;28;20021;-73
2021/09/02 06:40:25;;;;;;;11.23;6.93;;;17.60;99.90;;;;;;5026095;28;20048;-76
2021/09/02 06:42:51;;;;;;;11.68;7.15;;;17.70;99.90;;;;;;5035848;28;20033;-71
2021/09/02 06:45:17;;;;;;;12.32;7.38;;;17.70;99.90;;;;;;5042685;28;20063;-74
2021/09/02 06:47:44;;;;;;;16.38;8.18;;;17.80;99.90;;;;;;5029740;28;20037;-74
2021/09/02 06:50:12;;;;;;;11.52;7.35;;;17.90;99.90;;;;;;5028337;28;20041;-76
2021/09/02 06:52:38;;;;;;;12.73;7.25;;;17.90;99.90;;;;;;5029382;28;20021;-75
2021/09/02 06:55:04;;;;;;;11.68;7.13;;;17.90;99.90;;;;;;5033357;28;20057;-74
2021/09/02 06:57:29;;;;;;;13.27;7.43;;;18.00;99.90;;;;;;5033108;28;20068;-77
2021/09/02 06:59:56;;;;;;;9.93;6.55;;;18.10;99.90;;;;;;5033741;28;20050;-77
2021/09/02 07:02:21;;;;;;;9.90;6.65;;;18.10;99.90;;;;;;5030886;28;20497;-78
2021/09/02 07:04:47;;;;;;;11.13;8.20;;;18.30;99.90;;;;;;5029418;28;20035;-77
2021/09/02 07:07:12;;;;;;;12.30;6.90;;;18.30;99.60;;;;;;5033219;28;20023;-78
2021/09/02 07:09:38;;;;;;;10.02;6.28;;;18.30;99.50;;;;;;5032681;28;20398;-81
2021/09/02 07:12:04;;;;;;;9.23;6.20;;;18.40;99.50;;;;;;5032248;28;20155;-77
2021/09/02 07:14:30;;;;;;;12.90;7.25;;;18.50;99.70;;;;;;5028392;28;20647;-78
2021/09/02 07:16:55;;;;;;;11.57;7.45;;;18.50;99.50;;;;;;5036923;28;20060;-79
2021/09/02 07:19:21;;;;;;;13.52;7.88;;;18.60;99.30;;;;;;5044550;28;20056;-71
2021/09/02 07:21:46;;;;;;;13.50;7.80;;;18.60;99.10;;;;;;5038539;28;20569;-76
2021/09/02 07:24:12;;;;;;;11.88;6.85;;;18.70;98.90;;;;;;5040728;28;20021;-75
2021/09/02 07:26:39;;;;;;;8.32;6.40;;;18.70;98.80;;;;;;5029055;28;20113;-76
2021/09/02 07:29:08;;;;;;;11.57;6.95;;;18.70;98.70;;;;;;5030225;28;20396;-77
2021/09/02 07:31:35;;;;;;;12.10;6.70;;;18.80;98.50;;;;;;5038683;28;20085;-77
2021/09/02 07:34:01;;;;;;;12.52;7.13;;;18.70;98.40;;;;;;5040104;28;20034;-76
2021/09/02 07:36:27;;;;;;;13.35;6.88;;;18.80;98.50;;;;;;5029749;28;20121;-77
2021/09/02 07:38:52;;;;;;;9.25;6.43;;;18.80;98.40;;;;;;5038613;28;20406;-75
2021/09/02 07:41:18;;;;;;;8.52;5.95;;;18.90;98.40;;;;;;5030779;28;20032;-76
2021/09/02 07:43:43;;;;;;;9.35;6.15;;;18.90;98.20;;;;;;5042183;28;20026;-75
2021/09/02 07:46:10;;;;;;;10.15;6.15;;;18.90;98.10;;;;;;5032130;28;20032;-75
2021/09/02 07:48:36;;;;;;;15.70;7.43;;;19.00;98.00;;;;;;5032526;28;20104;-75
2021/09/02 07:51:01;;;;;;;9.57;6.63;;;19.00;97.90;;;;;;5037394;28;20121;-75
2021/09/02 07:53:27;;;;;;;10.07;6.80;;;19.00;97.90;;;;;;5035609;28;20060;-75
2021/09/02 07:55:52;;;;;;;12.18;7.85;;;19.00;97.90;;;;;;5033655;28;20634;-76
2021/09/02 07:58:18;;;;;;;12.68;7.32;;;19.00;97.80;;;;;;5023236;28;20028;-78
2021/09/02 08:00:44;;;;;;;9.85;7.45;;;19.00;97.70;;;;;;5027943;28;20046;-77
2021/09/02 08:03:10;;;;;;;10.10;6.55;;;19.10;97.60;;;;;;5033764;28;20103;-77
2021/09/02 08:05:35;;;;;;;9.00;7.07;;;19.10;97.70;;;;;;5022578;28;20079;-76
2021/09/02 08:08:00;;;;;;;11.35;6.97;;;19.00;97.70;;;;;;5020629;28;20049;-77
2021/09/02 08:10:27;;;;;;;11.23;6.57;;;19.10;97.70;;;;;;5024178;28;20133;-76
2021/09/02 08:12:53;;;;;;;10.52;7.25;;;19.10;97.70;;;;;;5029659;28;20036;-77
2021/09/02 08:15:20;;;;;;;12.57;7.50;;;19.20;97.60;;;;;;5029318;28;20079;-78
2021/09/02 08:17:47;;;;;;;10.93;8.07;;;19.20;97.60;;;;;;5036868;28;20411;-77
2021/09/02 08:20:14;;;;;;;11.13;7.30;;;19.30;97.40;;;;;;5041586;28;20044;-78
2021/09/02 08:22:40;;;;;;;9.60;7.32;;;19.20;97.10;;;;;;5034427;28;20017;-78
2021/09/02 08:25:08;;;;;;;11.45;6.82;;;19.20;97.10;;;;;;5030546;28;20021;-75
2021/09/02 08:27:34;;;;;;;9.63;7.25;;;19.30;97.10;;;;;;5037784;28;20040;-74
2021/09/02 08:30:00;;;;;;;12.43;7.38;;;19.20;97.20;;;;;;5038268;28;20477;-74
2021/09/02 08:32:26;;;;;;;8.93;7.03;;;19.30;97.20;;;;;;5031564;28;20033;-75
2021/09/02 08:34:51;;;;;;;11.07;7.15;;;19.30;96.90;;;;;;5025727;28;20048;-74
2021/09/02 08:37:17;;;;;;;8.68;6.93;;;19.30;96.80;;;;;;5025119;28;20024;-74
2021/09/02 08:39:42;;;;;;;10.15;6.57;;;19.40;96.80;;;;;;5029768;28;20088;-74
2021/09/02 08:42:08;;;;;;;10.05;7.72;;;19.50;96.70;;;;;;5032285;28;20036;-74
2021/09/02 08:44:34;;;;;;;11.13;7.72;;;19.50;96.40;;;;;;5032858;28;20028;-75
2021/09/02 08:47:00;;;;;;;10.32;7.35;;;19.40;96.40;;;;;;5033791;28;20489;-75
2021/09/02 08:49:25;;;;;;;10.18;7.28;;;19.40;96.50;;;;;;5032224;28;20569;-75
2021/09/02 08:51:51;;;;;;;11.07;8.27;;;19.50;96.60;;;;;;5032971;28;20029;-74
2021/09/02 08:54:18;;;;;;;9.90;7.18;;;19.60;96.60;;;;;;5033766;28;20045;-73
2021/09/02 08:56:43;;;;;;;10.98;6.25;;;19.70;96.30;;;;;;5033178;28;20109;-73
2021/09/02 08:59:09;;;;;;;9.82;6.50;;;19.80;96.10;;;;;;5013903;28;20462;-74
2021/09/02 09:01:35;;;;;;;9.38;6.07;;;19.90;96.00;;;;;;5025363;28;20041;-74
2021/09/02 09:04:12;;;;;;;7.10;5.88;;;19.90;95.80;;;;;;5033801;28;20279;-74
2021/09/02 09:06:39;;;;;;;7.20;6.03;;;19.90;95.50;;;;;;5033858;28;20147;-73
2021/09/02 09:09:16;;;;;;;7.18;5.50;;;19.80;95.50;;;;;;5048287;28;20045;-75
2021/09/02 09:11:47;;;;;;;8.27;6.15;;;19.70;95.60;;;;;;5033670;28;20040;-74
2021/09/02 09:14:16;;;;;;;8.15;5.60;;;19.70;95.70;;;;;;5033638;28;20033;-74
2021/09/02 09:16:52;;;;;;;8.45;5.53;;;19.70;95.50;;;;;;5033842;28;20032;-75
2021/09/02 09:19:36;;;;;;;7.18;5.80;;;19.80;95.60;;;;;;5033591;28;20425;-74
2021/09/02 09:22:05;;;;;;;6.30;5.05;;;19.80;95.40;;;;;;5023409;28;20052;-75
2021/09/02 09:24:51;;;;;;;8.65;6.03;;;19.80;95.50;;;;;;5032758;28;20045;-75
2021/09/02 09:27:35;;;;;;;8.32;5.85;;;19.80;95.30;;;;;;5031364;28;20108;-75
2021/09/02 09:30:10;;;;;;;9.43;5.82;;;19.70;95.50;;;;;;5031752;28;20026;-75
2021/09/02 09:32:39;;;;;;;10.27;6.60;;;19.70;95.60;;;;;;5033531;28;20092;-74
2021/09/02 09:35:06;;;;;;;11.70;6.43;;;19.70;95.50;;;;;;5018976;28;20022;-75
2021/09/02 09:37:31;;;;;;;9.52;6.43;;;19.60;95.60;;;;;;5047190;28;20033;-75
2021/09/02 09:40:16;;;;;;;7.97;6.60;;;19.70;95.70;;;;;;5029024;28;20029;-77
2021/09/02 09:43:03;;;;;;;8.85;6.18;;;19.70;95.70;;;;;;5027810;28;20030;-76
2021/09/02 09:45:48;;;;;;;11.27;5.97;;;19.70;95.70;;;;;;5017631;28;20037;-77
2021/09/02 09:48:17;;;;;;;8.32;6.38;;;19.70;95.60;;;;;;5030242;28;20060;-77
2021/09/02 09:50:43;;;;;;;7.38;5.90;;;19.80;95.40;;;;;;5026178;28;20553;-76
2021/09/02 09:53:26;;;;;;;9.25;7.53;;;19.90;95.50;;;;;;5030093;28;20420;-77
2021/09/02 09:55:55;;;;;;;9.85;7.32;;;19.80;95.30;;;;;;5030977;28;20033;-76
2021/09/02 09:58:25;;;;;;;10.15;7.25;;;19.80;95.40;;;;;;5031973;28;20033;-76
2021/09/02 10:00:54;;;;;;;9.30;6.20;;;19.90;95.30;;;;;;5012692;28;20514;-76
2021/09/02 10:03:21;;;;;;;9.00;6.57;;;19.90;95.40;;;;;;5022778;28;20018;-77
2021/09/02 10:05:51;;;;;;;7.80;6.20;;;19.90;95.00;;;;;;5032350;28;20044;-77
2021/09/02 10:08:18;;;;;;;8.00;6.13;;;19.90;95.20;;;;;;5032919;28;20088;-76
2021/09/02 10:10:43;;;;;;;8.35;6.15;;;19.90;95.10;;;;;;5029903;28;20519;-77
2021/09/02 10:13:10;;;;;;;8.02;6.38;;;19.90;95.10;;;;;;5029221;28;20025;-77
2021/09/02 10:15:36;;;;;;;8.23;6.05;;;20.00;95.00;;;;;;5030475;28;20037;-77
2021/09/02 10:18:03;;;;;;;8.02;6.30;;;20.00;94.90;;;;;;5021960;28;20075;-75
2021/09/02 10:20:33;;;;;;;11.60;7.65;;;19.90;94.90;;;;;;5029339;28;20065;-75
2021/09/02 10:23:00;;;;;;;11.07;7.18;;;20.00;95.10;;;;;;5031222;28;20033;-77
2021/09/02 10:25:32;;;;;;;7.88;6.32;;;20.00;95.00;;;;;;5031780;28;20034;-77
2021/09/02 10:28:21;;;;;;;9.77;6.75;;;20.00;94.90;;;;;;5031586;28;20025;-76
2021/09/02 10:30:55;;;;;;;9.38;6.25;;;20.00;94.90;;;;;;5032286;28;20284;-77
2021/09/02 10:33:41;;;;;;;8.80;5.68;;;20.00;94.90;;;;;;5028936;28;20112;-77
2021/09/02 10:36:15;;;;;;;8.65;5.45;;;20.00;95.00;;;;;;5020880;28;20041;-76
2021/09/02 10:38:49;;;;;;;9.63;6.75;;;20.00;95.00;;;;;;5030648;28;20090;-77
2021/09/02 10:41:40;;;;;;;11.32;7.63;;;20.10;95.10;;;;;;5030669;28;20041;-78
2021/09/02 10:44:10;;;;;;;7.85;6.43;;;20.10;95.00;;;;;;5027887;28;20025;-77
2021/09/02 10:46:45;;;;;;;9.35;6.35;;;20.10;94.90;;;;;;5030540;28;20118;-76
2021/09/02 10:49:13;;;;;;;8.07;5.68;;;20.10;94.90;;;;;;5025550;28;20056;-76
2021/09/02 10:51:41;;;;;;;9.88;6.03;;;20.20;94.90;;;;;;5030902;28;20469;-75
2021/09/02 10:54:09;;;;;;;13.00;8.02;;;20.30;94.80;;;;;;5016745;28;20306;-76
2021/09/02 10:56:54;;;;;;;7.78;6.47;;;20.30;94.70;;;;;;5031765;28;20615;-76
2021/09/02 10:59:36;;;;;;;9.90;6.10;;;20.40;94.80;;;;;;5029487;28;20116;-76
2021/09/02 11:02:05;;;;;;;9.60;7.43;;;20.40;94.80;;;;;;5030747;28;20134;-76
2021/09/02 11:04:32;;;;;;;9.75;8.00;;;20.50;94.70;;;;;;5030041;28;20112;-77
2021/09/02 11:06:57;;;;;;;11.60;7.72;;;20.50;94.60;;;;;;5029916;28;20026;-76
2021/09/02 11:09:30;;;;;;;9.57;7.10;;;20.40;94.40;;;;;;5030408;28;20029;-77
2021/09/02 11:11:56;;;;;;;9.55;7.15;;;20.40;94.40;;;;;;5030574;28;20021;-77
2021/09/02 11:14:21;;;;;;;11.15;7.32;;;20.40;94.60;;;;;;5030027;28;20087;-77
2021/09/02 11:16:47;;;;;;;13.13;6.88;;;20.40;94.60;;;;;;5030575;28;20358;-78
2021/09/02 11:19:12;;;;;;;10.23;8.18;;;20.50;94.60;;;;;;5029566;28;20065;-77
2021/09/02 11:21:38;;;;;;;10.10;6.68;;;20.50;94.40;;;;;;5029876;28;20065;-77
2021/09/02 11:24:07;;;;;;;11.98;7.18;;;20.60;94.50;;;;;;5028787;28;20036;-76
2021/09/02 11:26:38;;;;;;;15.00;7.75;;;20.70;94.40;;;;;;5031369;28;20473;-76
2021/09/02 11:29:09;;;;;;;10.55;7.38;;;20.70;94.40;;;;;;5029060;28;20037;-77
2021/09/02 11:31:36;;;;;;;10.93;6.68;;;20.70;94.40;;;;;;5030613;28;20100;-77
2021/09/02 11:34:03;;;;;;;8.80;6.82;;;20.70;94.40;;;;;;5029939;28;20033;-79
2021/09/02 11:36:30;;;;;;;9.18;7.95;;;20.80;94.40;;;;;;5031188;28;20022;-76
2021/09/02 11:39:07;;;;;;;11.85;7.18;;;20.90;94.20;;;;;;5030651;28;20040;-75
2021/09/02 11:41:33;;;;;;;11.32;7.13;;;20.90;94.20;;;;;;5028159;28;20442;-77
2021/09/02 11:43:58;;;;;;;8.38;6.03;;;20.90;94.30;;;;;;5029836;28;20128;-77
2021/09/02 11:46:24;;;;;;;9.77;6.47;;;20.90;94.10;;;;;;5030026;28;20036;-80
2021/09/02 11:48:51;;;;;;;10.23;6.68;;;21.00;93.80;;;;;;5025808;28;20104;-78
2021/09/02 11:51:27;;;;;;;10.50;6.22;;;21.00;93.80;;;;;;5030258;28;20029;-79
2021/09/02 11:54:23;;;;;;;10.27;6.78;;;21.00;93.60;;;;;;5031482;28;20180;-79
2021/09/02 11:56:49;;;;;;;9.32;6.80;;;21.00;93.60;;;;;;5025684;28;20044;-78
2021/09/02 11:59:15;;;;;;;9.98;6.80;;;21.00;93.50;;;;;;5027295;28;20034;-79
2021/09/02 12:01:43;;;;;;;10.00;6.30;;;21.00;93.50;;;;;;5034159;28;20060;-77
2021/09/02 12:04:40;;;;;;;11.18;6.25;;;21.10;93.50;;;;;;5031348;28;20416;-78
2021/09/02 12:07:06;;;;;;;8.98;6.20;;;21.10;93.40;;;;;;5025193;28;20037;-79
2021/09/02 12:09:34;;;;;;;9.25;6.82;;;21.20;93.40;;;;;;5016175;28;20032;-79
2021/09/02 12:12:00;;;;;;;9.60;7.22;;;21.20;93.40;;;;;;5032321;28;20030;-79
2021/09/02 12:14:29;;;;;;;11.48;6.97;;;21.10;93.20;;;;;;5034589;28;20040;-78
2021/09/02 12:17:09;;;;;;;11.93;6.95;;;21.10;93.40;;;;;;5034467;28;20056;-78
2021/09/02 12:19:55;;;;;;;9.77;5.82;;;21.20;93.50;;;;;;5033347;28;20048;-78
2021/09/02 12:22:24;;;;;;;10.35;7.07;;;21.30;93.50;;;;;;5032884;28;20037;-77
2021/09/02 12:24:50;;;;;;;9.10;6.68;;;21.30;93.20;;;;;;5033492;28;20069;-78
2021/09/02 12:27:15;;;;;;;11.20;6.38;;;21.30;93.10;;;;;;5034032;28;20445;-78
2021/09/02 12:29:49;;;;;;;10.27;6.25;;;21.30;93.20;;;;;;5032367;28;20520;-78
2021/09/02 12:32:20;;;;;;;10.20;6.33;;;21.40;93.30;;;;;;5034635;28;20104;-78
2021/09/02 12:34:48;;;;;;;10.27;7.32;;;21.40;93.20;;;;;;5033890;28;20035;-77
2021/09/02 12:37:15;;;;;;;9.02;6.50;;;21.50;93.10;;;;;;5031502;28;20037;-78
2021/09/02 12:40:02;;;;;;;8.63;6.90;;;21.50;92.90;;;;;;5033214;28;20033;-78
2021/09/02 12:42:30;;;;;;;9.52;6.38;;;21.50;92.80;;;;;;5032412;28;20043;-77